Time;durP1;ratioP1;P1;durP2;ratioP2;P2;SDS_P1;SDS_P2;PMS_P1;PMS_P2;Temp;Humidity;BMP_temperature;BMP_pressure;BME280_temperature;BME280_humidity;BME280_pressure;Samples;Min_cycle;Max_cycle;Signal;HPM_P1;HPM_P2
2022/08/27 00:01:32;;;;;;;0.57;0.57;;;21.50;99.90;;;;;;5086605;28;20247;-81
2022/08/27 00:03:58;;;;;;;1.23;1.10;;;21.60;99.90;;;;;;5092634;28;20295;-81
2022/08/27 00:06:25;;;;;;;1.73;1.30;;;21.40;99.90;;;;;;5087417;28;20656;-80
2022/08/27 00:08:51;;;;;;;0.60;0.47;;;21.30;99.90;;;;;;5076939;28;20211;-81
2022/08/27 00:11:19;;;;;;;2.87;1.33;;;21.30;99.90;;;;;;5088318;28;20655;-80
2022/08/27 00:13:45;;;;;;;1.07;1.07;;;21.30;99.90;;;;;;5078543;28;20616;-81
2022/08/27 00:16:13;;;;;;;0.70;0.70;;;21.30;99.90;;;;;;5091639;28;20270;-81
2022/08/27 00:18:40;;;;;;;1.00;1.00;;;21.50;99.90;;;;;;5085191;28;20200;-80
2022/08/27 00:21:06;;;;;;;0.30;0.27;;;21.70;99.90;;;;;;5076340;28;20255;-81
2022/08/27 00:23:32;;;;;;;0.43;0.43;;;21.70;99.90;;;;;;5082337;28;20925;-81
2022/08/27 00:25:58;;;;;;;0.63;0.63;;;21.70;99.90;;;;;;5087871;28;20191;-81
2022/08/27 00:28:25;;;;;;;0.63;0.63;;;21.80;99.90;;;;;;5078471;28;20210;-81
2022/08/27 00:30:50;;;;;;;0.63;0.63;;;21.90;99.90;;;;;;5082028;28;20177;-81
2022/08/27 00:33:16;;;;;;;2.90;0.70;;;21.80;99.90;;;;;;5075633;28;20177;-81
2022/08/27 00:35:41;;;;;;;2.07;1.60;;;21.90;99.90;;;;;;5079823;28;20639;-81
2022/08/27 00:38:07;;;;;;;2.53;1.03;;;21.30;99.90;;;;;;5088498;28;20250;-81
2022/08/27 00:40:33;;;;;;;2.33;1.23;;;21.30;99.90;;;;;;5089728;28;20554;-81
2022/08/27 00:43:02;;;;;;;2.30;2.10;;;21.30;99.90;;;;;;5078348;28;20181;-81
2022/08/27 00:45:31;;;;;;;0.60;0.60;;;21.30;99.90;;;;;;5085150;28;20184;-81
2022/08/27 00:47:59;;;;;;;1.47;0.83;;;21.30;99.90;;;;;;5094415;28;20196;-81
2022/08/27 00:50:34;;;;;;;1.30;1.20;;;21.40;99.90;;;;;;5081425;28;20202;-81
2022/08/27 00:53:22;;;;;;;1.47;0.80;;;21.10;99.90;;;;;;5082380;28;20465;-81
2022/08/27 00:55:57;;;;;;;1.27;1.00;;;21.20;99.90;;;;;;5083924;28;20232;-81
2022/08/27 00:58:28;;;;;;;0.53;0.53;;;21.30;99.90;;;;;;5081103;28;20282;-81
2022/08/27 01:00:55;;;;;;;1.53;1.00;;;21.40;99.90;;;;;;5086154;28;20245;-81
2022/08/27 01:03:21;;;;;;;0.93;0.73;;;21.40;99.90;;;;;;5084780;28;20184;-81
2022/08/27 01:05:48;;;;;;;1.77;1.57;;;21.20;99.90;;;;;;5089786;28;20184;-81
2022/08/27 01:08:18;;;;;;;1.37;1.27;;;21.30;99.90;;;;;;5080220;28;20215;-81
2022/08/27 01:10:45;;;;;;;0.57;0.57;;;21.20;99.90;;;;;;5084953;28;20176;-81
2022/08/27 01:13:14;;;;;;;1.90;1.27;;;21.10;99.90;;;;;;5079913;28;20189;-81
2022/08/27 01:15:41;;;;;;;0.67;0.67;;;20.90;99.90;;;;;;5083864;28;20282;-81
2022/08/27 01:18:07;;;;;;;0.63;0.63;;;20.90;99.90;;;;;;5083542;28;20201;-81
2022/08/27 01:20:55;;;;;;;1.33;1.23;;;20.90;99.90;;;;;;5084158;28;20185;-81
2022/08/27 01:23:42;;;;;;;0.67;0.67;;;20.90;99.90;;;;;;5092078;28;20193;-81
2022/08/27 01:26:11;;;;;;;3.70;0.70;;;21.00;99.90;;;;;;5078202;28;20202;-81
2022/08/27 01:28:37;;;;;;;1.00;1.00;;;20.90;99.90;;;;;;5104819;28;20199;-81
2022/08/27 01:31:06;;;;;;;0.63;0.63;;;20.90;99.90;;;;;;5082194;28;20268;-81
2022/08/27 01:33:31;;;;;;;1.33;1.23;;;21.00;99.90;;;;;;5085510;28;20497;-81
2022/08/27 01:35:57;;;;;;;0.50;0.50;;;21.00;99.90;;;;;;5084576;28;20202;-81
2022/08/27 01:38:23;;;;;;;2.47;1.40;;;21.10;99.90;;;;;;5096683;28;20257;-81
2022/08/27 01:40:49;;;;;;;2.33;1.20;;;21.00;99.90;;;;;;5086870;28;20177;-81
2022/08/27 01:43:15;;;;;;;0.77;0.70;;;21.10;99.90;;;;;;5083558;28;20184;-80
2022/08/27 01:45:47;;;;;;;0.70;0.70;;;21.20;99.90;;;;;;5091248;28;20566;-81
2022/08/27 01:48:13;;;;;;;7.13;0.90;;;21.10;99.90;;;;;;5084214;28;20205;-81
2022/08/27 01:50:40;;;;;;;0.40;0.40;;;21.20;99.90;;;;;;5091416;28;20180;-81
2022/08/27 01:53:15;;;;;;;1.47;1.30;;;21.00;99.90;;;;;;5085850;28;20246;-81
2022/08/27 01:55:43;;;;;;;1.23;1.03;;;21.00;99.90;;;;;;5092167;28;20264;-81
2022/08/27 01:58:09;;;;;;;0.80;0.80;;;21.00;99.90;;;;;;5088151;28;20589;-80
2022/08/27 02:00:39;;;;;;;0.53;0.53;;;20.90;99.90;;;;;;5094511;28;20237;-81
2022/08/27 02:03:06;;;;;;;0.60;0.50;;;20.80;99.90;;;;;;5091815;28;20268;-80
2022/08/27 02:05:32;;;;;;;1.23;0.80;;;20.80;99.90;;;;;;5085881;28;20895;-81
2022/08/27 02:07:58;;;;;;;0.90;0.87;;;20.70;99.90;;;;;;5088807;28;20208;-81
2022/08/27 02:10:29;;;;;;;0.67;0.67;;;20.80;99.90;;;;;;5090484;28;20704;-81
2022/08/27 02:12:54;;;;;;;1.33;0.87;;;20.80;99.90;;;;;;5092463;28;20193;-81
2022/08/27 02:15:20;;;;;;;1.33;0.90;;;20.80;99.90;;;;;;5092034;28;20216;-81
2022/08/27 02:17:46;;;;;;;0.83;0.83;;;20.60;99.90;;;;;;5093204;28;20243;-81
2022/08/27 02:20:13;;;;;;;4.13;3.03;;;20.60;99.90;;;;;;5090317;28;20298;-81
2022/08/27 02:22:39;;;;;;;2.03;1.23;;;20.50;99.90;;;;;;5089622;28;20265;-81
2022/08/27 02:25:07;;;;;;;1.20;1.10;;;20.40;99.90;;;;;;5089691;28;20187;-81
2022/08/27 02:27:34;;;;;;;1.50;1.40;;;20.50;99.90;;;;;;5090978;28;20196;-81
2022/08/27 02:30:00;;;;;;;1.70;1.20;;;20.40;99.90;;;;;;5086374;28;20216;-81
2022/08/27 02:32:27;;;;;;;1.70;1.60;;;20.30;99.90;;;;;;5086795;28;20250;-81
2022/08/27 02:34:52;;;;;;;0.90;0.90;;;20.20;99.90;;;;;;5085598;28;20201;-80
2022/08/27 02:37:18;;;;;;;3.93;2.27;;;20.20;99.90;;;;;;5089212;28;20212;-81
2022/08/27 02:39:44;;;;;;;1.33;1.23;;;20.20;99.90;;;;;;5093858;28;20180;-81
2022/08/27 02:42:10;;;;;;;1.43;1.00;;;20.20;99.90;;;;;;5095981;28;20267;-80
2022/08/27 02:44:36;;;;;;;0.73;0.73;;;20.20;99.90;;;;;;5091874;28;20222;-81
2022/08/27 02:47:02;;;;;;;1.00;0.97;;;20.30;99.90;;;;;;5100209;28;20262;-81
2022/08/27 02:49:28;;;;;;;1.03;0.93;;;20.40;99.90;;;;;;5095236;28;20239;-81
2022/08/27 02:51:55;;;;;;;0.47;0.47;;;20.40;99.90;;;;;;5088078;28;20242;-81
2022/08/27 02:54:22;;;;;;;1.13;1.10;;;20.40;99.90;;;;;;5083565;28;20217;-81
2022/08/27 02:56:48;;;;;;;0.47;0.47;;;20.30;99.90;;;;;;5081203;28;20176;-81
2022/08/27 02:59:13;;;;;;;1.17;0.70;;;20.30;99.90;;;;;;5085136;28;20205;-80
2022/08/27 03:01:39;;;;;;;0.60;0.60;;;20.40;99.90;;;;;;5088802;28;20180;-81
2022/08/27 03:04:05;;;;;;;0.70;0.70;;;20.40;99.90;;;;;;5088623;28;20180;-80
2022/08/27 03:06:30;;;;;;;3.77;0.77;;;20.50;99.90;;;;;;5094816;28;20573;-81
2022/08/27 03:08:56;;;;;;;1.10;0.90;;;20.40;99.90;;;;;;5095494;28;20649;-80
2022/08/27 03:11:22;;;;;;;4.27;1.50;;;20.40;99.90;;;;;;5080945;28;20179;-81
2022/08/27 03:13:48;;;;;;;1.93;1.40;;;20.30;99.90;;;;;;5080933;28;20178;-81
2022/08/27 03:16:14;;;;;;;1.73;1.33;;;20.30;99.90;;;;;;5087321;28;20187;-80
2022/08/27 03:18:39;;;;;;;2.50;2.00;;;20.30;99.90;;;;;;5086481;28;20305;-80
2022/08/27 03:21:06;;;;;;;1.13;1.13;;;20.40;99.90;;;;;;5091208;28;20180;-82
2022/08/27 03:23:33;;;;;;;1.10;1.10;;;20.40;99.90;;;;;;5087037;28;20172;-81
2022/08/27 03:26:00;;;;;;;0.87;0.87;;;20.40;99.90;;;;;;5090308;28;20217;-81
2022/08/27 03:28:30;;;;;;;1.93;1.83;;;20.40;99.90;;;;;;5099353;28;20202;-81
2022/08/27 03:31:00;;;;;;;1.00;1.00;;;20.40;99.90;;;;;;5077497;28;20240;-81
2022/08/27 03:33:31;;;;;;;0.73;0.70;;;20.40;99.90;;;;;;5084532;28;20218;-82
2022/08/27 03:35:57;;;;;;;1.70;1.60;;;20.40;99.90;;;;;;5086808;28;20238;-82
2022/08/27 03:38:23;;;;;;;1.73;1.23;;;20.30;99.90;;;;;;5086082;28;20200;-81
2022/08/27 03:40:50;;;;;;;1.83;1.63;;;20.40;99.90;;;;;;5092411;28;20184;-82
2022/08/27 03:43:17;;;;;;;1.63;1.53;;;20.40;99.90;;;;;;5086008;28;20641;-81
2022/08/27 03:45:44;;;;;;;1.30;1.13;;;20.40;99.90;;;;;;5083654;28;20184;-81
2022/08/27 03:48:11;;;;;;;1.23;1.07;;;20.40;99.90;;;;;;5080007;28;20682;-82
2022/08/27 03:50:38;;;;;;;3.50;1.00;;;20.60;99.90;;;;;;5094874;28;20809;-82
2022/08/27 03:53:04;;;;;;;1.57;1.13;;;20.70;99.90;;;;;;5084316;28;20707;-81
2022/08/27 03:55:30;;;;;;;0.87;0.80;;;20.70;99.90;;;;;;5083766;28;20207;-82
2022/08/27 03:57:55;;;;;;;0.50;0.50;;;20.70;99.90;;;;;;5090492;28;20204;-82
2022/08/27 04:00:23;;;;;;;0.63;0.63;;;20.60;99.90;;;;;;5082168;28;20181;-82
2022/08/27 04:02:49;;;;;;;1.10;1.00;;;20.70;99.90;;;;;;5076277;28;20271;-81
2022/08/27 04:05:15;;;;;;;1.53;1.07;;;20.80;99.90;;;;;;5081582;28;20676;-81
2022/08/27 04:07:41;;;;;;;1.33;1.23;;;20.60;99.90;;;;;;5091546;28;20207;-82
2022/08/27 04:10:08;;;;;;;1.17;1.07;;;20.60;99.90;;;;;;5087268;28;20646;-82
2022/08/27 04:12:34;;;;;;;3.90;1.50;;;20.60;99.90;;;;;;5090758;28;20189;-82
2022/08/27 04:15:00;;;;;;;0.93;0.93;;;20.60;99.90;;;;;;5078251;28;20288;-81
2022/08/27 04:17:27;;;;;;;2.83;2.47;;;20.60;99.90;;;;;;5092888;28;20227;-81
2022/08/27 04:19:53;;;;;;;0.70;0.70;;;20.60;99.90;;;;;;5088567;28;20180;-81
2022/08/27 04:22:19;;;;;;;1.40;1.30;;;20.70;99.90;;;;;;5093696;28;20184;-81
2022/08/27 04:24:45;;;;;;;3.77;1.40;;;20.80;99.90;;;;;;5086347;28;20184;-81
2022/08/27 04:27:13;;;;;;;0.80;0.80;;;20.80;99.90;;;;;;5077312;28;20234;-81
2022/08/27 04:29:39;;;;;;;1.57;1.20;;;20.90;99.90;;;;;;5084462;28;20216;-81
2022/08/27 04:32:05;;;;;;;1.23;0.93;;;20.90;99.90;;;;;;5082666;28;20181;-82
2022/08/27 04:34:31;;;;;;;1.33;1.23;;;20.90;99.90;;;;;;5098933;28;20230;-82
2022/08/27 04:36:56;;;;;;;1.40;1.30;;;20.80;99.90;;;;;;5089509;28;20634;-82
2022/08/27 04:39:24;;;;;;;4.40;1.90;;;20.60;99.90;;;;;;5086072;28;20212;-82
2022/08/27 04:41:50;;;;;;;2.83;2.53;;;20.60;99.90;;;;;;5084323;28;20589;-81
2022/08/27 04:44:16;;;;;;;1.37;1.27;;;20.60;99.90;;;;;;5075557;28;21966;-81
2022/08/27 04:46:42;;;;;;;1.00;1.00;;;20.70;99.90;;;;;;5083353;28;20180;-81
2022/08/27 04:49:10;;;;;;;2.37;1.27;;;20.50;99.90;;;;;;5077817;28;20216;-81
2022/08/27 04:51:37;;;;;;;1.17;1.07;;;20.40;99.90;;;;;;5082762;28;20246;-81
2022/08/27 04:54:05;;;;;;;1.40;1.13;;;20.50;99.90;;;;;;5083491;28;20268;-81
2022/08/27 04:56:31;;;;;;;2.03;1.10;;;20.40;99.90;;;;;;5082065;28;20241;-82
2022/08/27 04:58:56;;;;;;;1.43;1.33;;;20.30;99.90;;;;;;5091077;28;20208;-82
2022/08/27 05:01:27;;;;;;;1.40;1.30;;;20.50;99.90;;;;;;5097689;28;20188;-82
2022/08/27 05:03:53;;;;;;;1.03;0.93;;;20.50;99.90;;;;;;5092157;28;20510;-82
2022/08/27 05:06:20;;;;;;;1.10;1.00;;;20.40;99.90;;;;;;5084583;28;20215;-81
2022/08/27 05:08:47;;;;;;;0.93;0.90;;;20.40;99.90;;;;;;5089287;28;20214;-81
2022/08/27 05:11:14;;;;;;;1.47;1.37;;;20.50;99.90;;;;;;5087373;28;20180;-81
2022/08/27 05:13:42;;;;;;;2.23;1.73;;;20.50;99.90;;;;;;5097309;28;20179;-81
2022/08/27 05:16:10;;;;;;;2.00;1.63;;;20.40;99.90;;;;;;5098778;28;20281;-81
2022/08/27 05:18:37;;;;;;;2.20;1.53;;;20.30;99.90;;;;;;5094563;28;20195;-80
2022/08/27 05:21:04;;;;;;;2.23;1.60;;;20.20;99.90;;;;;;5087446;27;20199;-81
2022/08/27 05:23:31;;;;;;;1.53;1.10;;;20.20;99.90;;;;;;5091561;28;20176;-80
2022/08/27 05:25:57;;;;;;;2.47;1.30;;;20.30;99.90;;;;;;5091843;28;20949;-81
2022/08/27 05:28:25;;;;;;;1.57;1.47;;;20.30;99.90;;;;;;5085696;28;20234;-81
2022/08/27 05:30:52;;;;;;;1.23;1.13;;;20.30;99.90;;;;;;5091283;28;20213;-80
2022/08/27 05:33:24;;;;;;;1.50;1.17;;;20.30;99.90;;;;;;5089435;28;20201;-81
2022/08/27 05:35:52;;;;;;;0.77;0.77;;;20.30;99.90;;;;;;5091088;28;20205;-81
2022/08/27 05:38:19;;;;;;;0.57;0.57;;;20.30;99.90;;;;;;5098765;28;20234;-81
2022/08/27 05:40:46;;;;;;;1.07;1.07;;;20.30;99.90;;;;;;5103876;27;20636;-80
2022/08/27 05:43:14;;;;;;;2.17;2.07;;;20.20;99.90;;;;;;5079161;28;20181;-81
2022/08/27 05:45:42;;;;;;;0.83;0.50;;;20.20;99.90;;;;;;5084619;28;20188;-81
2022/08/27 05:48:10;;;;;;;0.57;0.57;;;20.30;99.90;;;;;;5082117;28;20204;-81
2022/08/27 05:50:37;;;;;;;1.47;1.40;;;20.40;99.90;;;;;;5091363;28;20173;-81
2022/08/27 05:53:02;;;;;;;1.53;1.43;;;20.20;99.90;;;;;;5079381;28;20227;-81
2022/08/27 05:55:28;;;;;;;1.57;1.43;;;20.20;99.90;;;;;;5084600;28;21052;-81
2022/08/27 05:57:53;;;;;;;1.20;1.10;;;20.20;99.90;;;;;;5093635;28;20204;-81
2022/08/27 06:03:03;;;;;;;1.63;1.23;;;20.40;99.90;;;;;;5099220;28;20199;-81
2022/08/27 06:05:29;;;;;;;1.73;1.07;;;20.40;99.90;;;;;;5092140;28;20188;-81
2022/08/27 06:07:54;;;;;;;0.90;0.90;;;20.40;99.90;;;;;;5090588;28;20283;-81
2022/08/27 06:10:20;;;;;;;3.03;1.13;;;20.30;99.90;;;;;;5096109;28;20184;-80
2022/08/27 06:12:45;;;;;;;7.87;1.53;;;20.40;99.90;;;;;;5097835;28;20519;-80
2022/08/27 06:15:11;;;;;;;0.90;0.60;;;20.40;99.90;;;;;;5093273;28;20249;-80
2022/08/27 06:17:37;;;;;;;1.20;0.90;;;20.40;99.90;;;;;;5100836;28;20195;-81
2022/08/27 06:20:03;;;;;;;2.17;1.17;;;20.70;99.90;;;;;;5087266;28;20183;-81
2022/08/27 06:22:28;;;;;;;0.93;0.93;;;20.60;99.90;;;;;;5101819;28;20595;-80
2022/08/27 06:24:54;;;;;;;1.80;1.57;;;20.70;99.90;;;;;;5087352;28;20191;-81
2022/08/27 06:27:19;;;;;;;1.17;1.13;;;20.70;99.90;;;;;;5095980;28;20193;-81
2022/08/27 06:29:45;;;;;;;0.97;0.97;;;20.90;99.90;;;;;;5085656;28;20189;-81
2022/08/27 06:32:13;;;;;;;1.87;1.53;;;20.70;99.90;;;;;;5091959;28;20214;-81
2022/08/27 06:34:38;;;;;;;1.37;1.37;;;21.00;99.90;;;;;;5098785;28;20340;-80
2022/08/27 06:37:05;;;;;;;1.20;0.70;;;20.80;99.90;;;;;;5092137;28;20222;-80
2022/08/27 06:39:31;;;;;;;1.33;1.20;;;20.80;99.90;;;;;;5102306;28;20236;-81
2022/08/27 06:41:57;;;;;;;6.50;1.63;;;20.80;99.90;;;;;;5085747;28;20636;-81
2022/08/27 06:44:26;;;;;;;1.73;1.63;;;20.70;99.90;;;;;;5090299;28;20188;-81
2022/08/27 06:46:51;;;;;;;1.47;1.37;;;20.60;99.90;;;;;;5092073;28;20191;-81
2022/08/27 06:49:17;;;;;;;0.93;0.90;;;20.70;99.90;;;;;;5092889;28;20216;-81
2022/08/27 06:51:45;;;;;;;0.70;0.70;;;20.90;99.90;;;;;;5083010;28;20189;-81
2022/08/27 06:54:13;;;;;;;1.03;0.93;;;20.90;99.90;;;;;;5087180;28;20214;-80
2022/08/27 06:56:40;;;;;;;1.03;0.83;;;21.00;99.90;;;;;;5078241;28;20209;-81
2022/08/27 06:59:08;;;;;;;1.87;0.93;;;21.20;99.90;;;;;;5090238;28;20200;-81
2022/08/27 07:01:37;;;;;;;0.80;0.80;;;21.30;99.90;;;;;;5082064;28;20172;-80
2022/08/27 07:04:06;;;;;;;1.03;0.73;;;21.30;99.90;;;;;;5090854;28;20277;-81
2022/08/27 07:06:33;;;;;;;2.50;1.40;;;21.30;99.90;;;;;;5098422;28;20290;-81
2022/08/27 07:08:59;;;;;;;1.60;1.50;;;21.20;99.90;;;;;;5082774;28;20204;-81
2022/08/27 07:11:26;;;;;;;1.80;1.70;;;21.50;99.90;;;;;;5085620;28;20176;-81
2022/08/27 07:13:52;;;;;;;1.37;1.27;;;21.20;99.90;;;;;;5086889;28;20200;-80
2022/08/27 07:16:20;;;;;;;1.00;0.97;;;21.00;99.90;;;;;;5092836;28;20269;-81
2022/08/27 07:18:48;;;;;;;3.50;1.10;;;21.10;99.90;;;;;;5078891;28;20216;-80
2022/08/27 07:21:14;;;;;;;0.80;0.80;;;21.00;99.90;;;;;;5088954;28;20184;-80
2022/08/27 07:23:39;;;;;;;0.90;0.90;;;21.20;99.90;;;;;;5086494;28;20739;-80
2022/08/27 07:26:09;;;;;;;0.53;0.40;;;21.20;99.90;;;;;;5079581;28;20645;-80
2022/08/27 07:28:36;;;;;;;1.00;0.80;;;21.40;99.90;;;;;;5092762;28;20217;-79
2022/08/27 07:31:03;;;;;;;0.70;0.50;;;21.40;99.90;;;;;;5091681;28;20683;-80
2022/08/27 07:33:29;;;;;;;2.03;1.07;;;21.60;99.90;;;;;;5089942;28;20168;-80
2022/08/27 07:35:54;;;;;;;2.60;1.10;;;21.60;99.90;;;;;;5088986;28;20196;-80
2022/08/27 07:38:20;;;;;;;3.27;2.40;;;21.60;99.90;;;;;;5093636;28;20200;-80
2022/08/27 07:40:45;;;;;;;0.67;0.60;;;21.50;99.90;;;;;;5091280;28;20172;-80
2022/08/27 07:46:00;;;;;;;1.47;0.80;;;21.90;99.90;;;;;;5091803;28;20229;-80
2022/08/27 07:48:26;;;;;;;0.20;0.20;;;22.10;99.90;;;;;;5079253;28;20531;-80
2022/08/27 07:50:52;;;;;;;0.60;0.60;;;22.40;99.90;;;;;;5091232;28;20173;-79
2022/08/27 07:53:19;;;;;;;0.83;0.83;;;22.50;99.90;;;;;;5080598;28;20650;-79
2022/08/27 07:55:45;;;;;;;1.20;1.10;;;22.50;99.90;;;;;;5098456;28;20215;-86
2022/08/27 07:58:12;;;;;;;1.07;0.87;;;22.10;99.90;;;;;;5093552;28;20205;-79
2022/08/27 08:00:41;;;;;;;0.30;0.30;;;22.10;99.90;;;;;;5096255;28;20187;-80
2022/08/27 08:03:07;;;;;;;0.97;0.77;;;22.30;99.90;;;;;;5083473;28;20192;-80
2022/08/27 08:05:33;;;;;;;0.70;0.70;;;22.70;99.90;;;;;;5087331;28;20176;-80
2022/08/27 08:07:58;;;;;;;1.07;0.70;;;22.70;99.90;;;;;;5089543;28;20306;-80
2022/08/27 08:10:24;;;;;;;1.80;1.20;;;22.70;99.90;;;;;;5095349;28;20188;-80
2022/08/27 08:12:50;;;;;;;0.77;0.77;;;22.70;99.90;;;;;;5098405;28;20225;-80
2022/08/27 08:15:16;;;;;;;0.50;0.50;;;23.00;99.90;;;;;;5089439;28;20208;-81
2022/08/27 08:17:43;;;;;;;0.97;0.97;;;23.10;99.90;;;;;;5083941;28;20196;-81
2022/08/27 08:20:10;;;;;;;0.73;0.73;;;22.80;99.90;;;;;;5083989;28;20192;-80
2022/08/27 08:22:36;;;;;;;0.73;0.73;;;22.80;99.90;;;;;;5089042;28;20187;-80
2022/08/27 08:25:03;;;;;;;1.20;0.77;;;22.70;99.90;;;;;;5087833;28;20646;-80
2022/08/27 08:27:29;;;;;;;0.60;0.60;;;22.90;99.90;;;;;;5087167;28;20735;-80
2022/08/27 08:29:54;;;;;;;1.53;0.93;;;22.80;99.90;;;;;;5090580;28;20267;-80
2022/08/27 08:32:20;;;;;;;1.30;1.00;;;22.90;99.90;;;;;;5082699;28;20217;-80
2022/08/27 08:34:46;;;;;;;1.90;1.67;;;22.80;99.90;;;;;;5084264;28;20671;-80
2022/08/27 08:37:13;;;;;;;1.23;0.70;;;23.00;99.90;;;;;;5086122;28;20181;-80
2022/08/27 08:39:39;;;;;;;0.73;0.60;;;23.30;99.90;;;;;;5086335;28;20206;-80
2022/08/27 08:42:09;;;;;;;1.43;0.93;;;23.50;99.90;;;;;;5079866;28;20208;-80
2022/08/27 08:44:41;;;;;;;0.47;0.47;;;23.80;99.90;;;;;;5084376;28;20183;-80
2022/08/27 08:47:18;;;;;;;0.57;0.57;;;24.10;99.90;;;;;;5083570;28;20275;-80
2022/08/27 08:50:01;;;;;;;0.77;0.77;;;23.30;99.90;;;;;;5084647;28;20192;-81
2022/08/27 08:52:40;;;;;;;0.80;0.80;;;23.50;99.90;;;;;;5085580;28;20184;-80
2022/08/27 08:55:24;;;;;;;0.63;0.60;;;23.90;99.90;;;;;;5081740;28;20287;-80
2022/08/27 08:58:11;;;;;;;1.13;1.13;;;24.20;99.90;;;;;;5085176;28;20245;-80
2022/08/27 09:00:38;;;;;;;1.27;0.60;;;24.00;99.90;;;;;;5080987;28;20558;-80
2022/08/27 09:03:04;;;;;;;0.97;0.97;;;24.10;99.90;;;;;;5086967;28;20215;-80
2022/08/27 09:05:29;;;;;;;1.17;1.03;;;23.90;99.90;;;;;;5084671;28;20216;-80
2022/08/27 09:08:06;;;;;;;0.53;0.53;;;24.10;99.90;;;;;;5081410;28;20743;-80
2022/08/27 09:10:58;;;;;;;0.77;0.77;;;24.80;99.90;;;;;;5084945;28;20187;-80
2022/08/27 09:13:31;;;;;;;1.60;0.90;;;25.00;99.90;;;;;;5088560;28;20181;-81
2022/08/27 09:16:02;;;;;;;0.73;0.70;;;25.50;99.90;;;;;;5086621;28;20207;-81
2022/08/27 09:18:28;;;;;;;2.43;0.83;;;25.60;99.90;;;;;;5083433;28;20207;-81
2022/08/27 09:21:09;;;;;;;0.77;0.77;;;25.90;99.90;;;;;;5085566;28;20189;-82
2022/08/27 09:24:04;;;;;;;0.90;0.60;;;24.90;99.90;;;;;;5081822;28;20181;-80
2022/08/27 09:26:37;;;;;;;0.87;0.83;;;24.80;99.90;;;;;;5060073;28;20278;-82
2022/08/27 09:29:15;;;;;;;2.67;0.93;;;25.70;99.90;;;;;;5073196;28;20204;-81
2022/08/27 09:31:44;;;;;;;0.63;0.63;;;24.80;99.90;;;;;;5086773;28;20211;-81
2022/08/27 09:34:10;;;;;;;1.07;0.97;;;25.10;99.90;;;;;;5081772;28;20951;-81
2022/08/27 09:37:06;;;;;;;0.50;0.50;;;25.30;99.90;;;;;;5072987;28;20275;-81
2022/08/27 09:39:34;;;;;;;0.80;0.70;;;25.90;99.90;;;;;;5088792;28;20273;-81
2022/08/27 09:42:01;;;;;;;0.90;0.90;;;25.80;99.90;;;;;;5086054;28;20184;-81
2022/08/27 09:44:31;;;;;;;1.37;0.50;;;25.10;99.90;;;;;;5084146;28;20177;-81
2022/08/27 09:47:01;;;;;;;1.23;0.90;;;25.50;99.90;;;;;;5098350;28;20179;-81
2022/08/27 09:49:27;;;;;;;0.50;0.50;;;25.20;99.90;;;;;;5103956;28;20241;-81
2022/08/27 09:51:54;;;;;;;0.90;0.60;;;25.50;99.90;;;;;;5098901;28;20184;-81
2022/08/27 09:54:38;;;;;;;0.40;0.40;;;25.60;99.90;;;;;;5092070;28;20542;-81
2022/08/27 09:57:05;;;;;;;1.10;0.73;;;25.30;99.90;;;;;;5089607;28;20208;-81
2022/08/27 09:59:51;;;;;;;1.07;0.60;;;25.70;99.90;;;;;;5096069;28;20226;-81
2022/08/27 10:02:22;;;;;;;1.17;0.50;;;26.30;99.90;;;;;;5085212;28;20595;-81
2022/08/27 10:04:51;;;;;;;0.67;0.67;;;26.50;99.90;;;;;;5083804;28;20188;-81
2022/08/27 10:07:36;;;;;;;1.57;0.90;;;26.60;99.90;;;;;;5085128;28;20204;-81
2022/08/27 10:10:22;;;;;;;0.77;0.73;;;26.50;99.90;;;;;;5090522;28;20646;-81
2022/08/27 10:13:00;;;;;;;0.60;0.60;;;25.80;99.90;;;;;;5080645;28;20222;-81
2022/08/27 10:16:05;;;;;;;1.63;0.83;;;25.80;99.90;;;;;;5097443;28;20203;-81
2022/08/27 10:18:50;;;;;;;1.07;1.03;;;25.30;99.90;;;;;;5086534;28;20206;-81
2022/08/27 10:21:32;;;;;;;0.93;0.70;;;25.50;99.90;;;;;;5092345;28;20196;-81
2022/08/27 10:24:16;;;;;;;0.97;0.97;;;25.50;99.90;;;;;;5086053;28;20245;-81
2022/08/27 10:26:55;;;;;;;2.63;0.90;;;25.60;99.90;;;;;;5086166;28;20183;-81
2022/08/27 10:29:30;;;;;;;0.73;0.73;;;25.50;99.90;;;;;;5091614;28;20213;-81
2022/08/27 10:32:15;;;;;;;0.60;0.43;;;25.50;99.90;;;;;;5089812;28;20195;-82
2022/08/27 10:34:58;;;;;;;1.77;1.20;;;25.60;99.90;;;;;;5081135;28;20259;-82
2022/08/27 10:38:01;;;;;;;0.93;0.70;;;25.70;99.90;;;;;;5092851;28;20197;-81
2022/08/27 10:40:33;;;;;;;9.63;1.37;;;26.20;99.90;;;;;;5060348;28;20192;-82
2022/08/27 10:43:36;;;;;;;0.53;0.50;;;26.40;99.90;;;;;;5081002;28;20208;-81
2022/08/27 10:46:45;;;;;;;0.90;0.90;;;26.70;99.90;;;;;;5096839;27;20223;-81
2022/08/27 10:49:22;;;;;;;0.63;0.63;;;26.70;99.90;;;;;;5089145;28;20220;-81
2022/08/27 10:51:58;;;;;;;4.93;0.70;;;26.60;99.90;;;;;;5096489;28;21097;-81
2022/08/27 10:54:34;;;;;;;2.40;0.70;;;26.60;99.90;;;;;;5111407;27;20183;-81
2022/08/27 10:57:35;;;;;;;0.93;0.73;;;26.50;99.90;;;;;;5086241;28;20555;-81
2022/08/27 11:00:10;;;;;;;1.37;0.90;;;26.80;99.90;;;;;;5050907;28;20193;-81
2022/08/27 11:02:40;;;;;;;1.10;1.07;;;27.20;99.90;;;;;;5093395;28;20209;-81
2022/08/27 11:05:16;;;;;;;0.77;0.77;;;26.50;99.90;;;;;;5087925;28;20184;-82
2022/08/27 11:08:05;;;;;;;0.70;0.60;;;26.40;99.90;;;;;;5082971;28;20563;-81
2022/08/27 11:10:34;;;;;;;1.40;0.90;;;26.60;99.90;;;;;;5076040;28;20192;-79
2022/08/27 11:13:07;;;;;;;1.17;0.90;;;27.20;99.90;;;;;;5088050;28;20193;-81
2022/08/27 11:15:35;;;;;;;0.73;0.57;;;27.40;99.90;;;;;;5085190;28;20200;-81
2022/08/27 11:18:15;;;;;;;0.80;0.80;;;27.40;99.90;;;;;;5084456;28;20208;-80
2022/08/27 11:20:54;;;;;;;0.63;0.63;;;27.50;99.90;;;;;;5087391;28;20196;-81
2022/08/27 11:23:28;;;;;;;0.90;0.90;;;27.20;99.90;;;;;;5093771;28;20184;-80
2022/08/27 11:25:57;;;;;;;1.43;1.00;;;27.20;99.90;;;;;;5083640;28;20191;-80
2022/08/27 11:28:30;;;;;;;0.90;0.90;;;26.90;99.90;;;;;;5097381;28;20268;-81
2022/08/27 11:31:16;;;;;;;0.80;0.80;;;26.40;99.90;;;;;;5078982;28;20216;-81
2022/08/27 11:33:51;;;;;;;1.97;0.83;;;26.30;99.90;;;;;;5086616;28;20180;-81
2022/08/27 11:36:44;;;;;;;0.97;0.70;;;26.00;99.90;;;;;;5096488;28;20219;-81
2022/08/27 11:39:18;;;;;;;0.40;0.40;;;26.10;99.90;;;;;;5090001;28;20201;-80
2022/08/27 11:41:59;;;;;;;0.60;0.60;;;26.00;99.90;;;;;;5086973;28;20193;-81
2022/08/27 11:44:26;;;;;;;0.60;0.60;;;26.00;99.90;;;;;;5086242;28;20202;-81
2022/08/27 11:47:05;;;;;;;0.57;0.57;;;25.90;99.90;;;;;;5093083;28;20203;-81
2022/08/27 11:49:43;;;;;;;0.53;0.53;;;25.70;99.90;;;;;;5087053;28;20226;-81
2022/08/27 11:52:09;;;;;;;0.87;0.73;;;25.40;99.90;;;;;;5092113;28;20177;-80
2022/08/27 11:54:51;;;;;;;1.27;0.97;;;25.10;99.90;;;;;;5087836;28;20243;-81
2022/08/27 11:57:28;;;;;;;0.40;0.33;;;24.90;99.90;;;;;;5096765;28;20180;-80
2022/08/27 11:59:54;;;;;;;1.10;0.70;;;24.90;99.90;;;;;;5080984;28;20180;-81
2022/08/27 12:02:24;;;;;;;1.20;1.07;;;24.90;99.90;;;;;;5097841;28;20322;-81
2022/08/27 12:04:51;;;;;;;0.90;0.90;;;25.00;99.90;;;;;;5086778;28;20211;-81
2022/08/27 12:07:17;;;;;;;0.50;0.43;;;24.80;99.90;;;;;;5090669;28;20288;-81
2022/08/27 12:09:55;;;;;;;3.00;0.70;;;24.80;99.90;;;;;;5084749;28;20189;-80
2022/08/27 12:12:40;;;;;;;2.13;0.90;;;25.00;99.90;;;;;;5096558;28;20812;-80
2022/08/27 12:15:34;;;;;;;0.47;0.47;;;24.90;99.90;;;;;;5085269;28;20220;-80
2022/08/27 12:18:30;;;;;;;1.40;1.27;;;25.20;99.90;;;;;;5087341;28;20200;-80
2022/08/27 12:21:14;;;;;;;0.83;0.73;;;25.00;99.90;;;;;;5077184;28;20252;-80
2022/08/27 12:24:09;;;;;;;0.70;0.70;;;24.70;99.90;;;;;;5076547;28;20185;-80
2022/08/27 12:26:38;;;;;;;0.60;0.57;;;24.70;99.90;;;;;;5085626;28;20172;-80
2022/08/27 12:29:27;;;;;;;0.57;0.40;;;24.60;99.90;;;;;;5084603;28;20311;-80
2022/08/27 12:32:04;;;;;;;0.47;0.47;;;24.60;99.90;;;;;;5087745;28;20185;-80
2022/08/27 12:34:40;;;;;;;0.67;0.67;;;24.70;99.90;;;;;;5090111;28;20597;-80
2022/08/27 12:37:07;;;;;;;0.80;0.57;;;24.80;99.90;;;;;;5084843;28;20169;-80
2022/08/27 12:39:36;;;;;;;0.47;0.47;;;24.80;99.90;;;;;;5089816;28;20207;-80
2022/08/27 12:42:13;;;;;;;0.50;0.50;;;24.80;99.90;;;;;;5084863;28;20185;-81
2022/08/27 12:44:38;;;;;;;0.53;0.50;;;24.70;99.90;;;;;;5085542;28;20266;-81
2022/08/27 12:47:07;;;;;;;0.83;0.57;;;24.80;99.90;;;;;;5095220;28;20205;-81
2022/08/27 12:49:45;;;;;;;0.77;0.77;;;25.00;99.90;;;;;;5087858;28;20211;-81
2022/08/27 12:52:37;;;;;;;0.37;0.37;;;25.10;99.90;;;;;;5095111;28;20188;-81
2022/08/27 12:55:10;;;;;;;1.27;0.63;;;25.30;99.90;;;;;;5085716;28;20678;-81
2022/08/27 12:57:46;;;;;;;0.67;0.50;;;25.60;99.90;;;;;;5088381;28;20184;-81
2022/08/27 13:00:17;;;;;;;0.93;0.70;;;25.20;99.90;;;;;;5083352;28;20522;-81
2022/08/27 13:02:49;;;;;;;0.47;0.47;;;25.00;99.90;;;;;;5086092;28;20709;-81
2022/08/27 13:05:20;;;;;;;1.07;0.80;;;25.50;99.90;;;;;;5086738;28;20234;-81
2022/08/27 13:07:49;;;;;;;0.63;0.63;;;25.90;99.90;;;;;;5083979;28;20203;-81
2022/08/27 13:10:19;;;;;;;0.80;0.80;;;25.80;99.90;;;;;;5088088;28;20191;-81